Time;durP1;ratioP1;P1;durP2;ratioP2;P2;SDS_P1;SDS_P2;PMS_P1;PMS_P2;Temp;Humidity;BMP_temperature;BMP_pressure;BME280_temperature;BME280_humidity;BME280_pressure;Samples;Min_cycle;Max_cycle;Signal;HPM_P1;HPM_P2
2023/05/24 00:02:07;;;;;;;9.98;1.92;;;;;;;13.66;52.67;100819.66;10306068;28;20049;-67
2023/05/24 00:07:08;;;;;;;10.55;1.60;;;;;;;13.57;52.66;100818.91;10306120;28;20054;-64
2023/05/24 00:12:10;;;;;;;9.30;1.77;;;;;;;13.51;52.95;100816.97;10305368;28;20038;-70
2023/05/24 00:17:12;;;;;;;8.88;1.40;;;;;;;13.39;53.02;100823.81;10308933;28;20120;-70
2023/05/24 00:22:13;;;;;;;9.70;1.65;;;;;;;13.23;53.44;100822.91;10303152;28;20075;-65
2023/05/24 00:27:14;;;;;;;10.38;1.60;;;;;;;13.20;53.34;100820.56;10307191;28;20047;-69
2023/05/24 00:32:16;;;;;;;9.10;2.42;;;;;;;13.22;53.17;100821.22;10308472;28;20050;-67
2023/05/24 00:37:17;;;;;;;7.05;1.27;;;;;;;13.17;53.39;100823.66;10307410;28;20059;-67
2023/05/24 00:42:19;;;;;;;10.40;1.10;;;;;;;13.09;53.11;100821.84;10306783;28;20516;-67
2023/05/24 00:47:21;;;;;;;8.27;1.73;;;;;;;12.99;53.45;100821.22;10307053;28;20051;-70
2023/05/24 00:52:22;;;;;;;5.70;1.70;;;;;;;12.94;53.16;100830.91;10307387;28;20489;-67
2023/05/24 00:57:24;;;;;;;14.48;2.28;;;;;;;12.88;53.40;100835.16;10306488;28;20119;-65
2023/05/24 01:02:25;;;;;;;8.23;1.40;;;;;;;12.87;52.98;100823.53;10304732;28;20034;-70
2023/05/24 01:07:46;;;;;;;7.03;1.58;;;;;;;12.79;53.12;100828.97;10301882;28;20055;-70
2023/05/24 01:13:25;;;;;;;8.73;1.27;;;;;;;12.69;52.71;100831.06;10307457;28;20054;-70
2023/05/24 01:18:38;;;;;;;11.85;1.48;;;;;;;12.61;53.06;100826.53;10310545;28;20061;-67
2023/05/24 01:24:04;;;;;;;10.63;1.40;;;;;;;12.66;52.36;100818.78;10300969;28;20038;-69
2023/05/24 01:29:07;;;;;;;8.30;1.00;;;;;;;12.69;52.25;100825.66;10303903;28;20057;-70
2023/05/24 01:34:08;;;;;;;7.85;1.13;;;;;;;12.63;52.29;100815.59;10305144;28;20049;-66
2023/05/24 01:39:10;;;;;;;7.85;1.40;;;;;;;12.61;52.16;100817.63;10308353;28;20054;-67
2023/05/24 01:44:33;;;;;;;7.55;1.35;;;;;;;12.57;52.33;100814.44;10305630;28;20034;-70
2023/05/24 01:49:41;;;;;;;6.85;1.52;;;;;;;12.56;52.88;100820.00;10286467;28;20587;-70
2023/05/24 01:54:46;;;;;;;7.18;1.50;;;;;;;12.53;53.13;100823.91;10303352;28;20441;-69
2023/05/24 01:59:49;;;;;;;3.72;0.77;;;;;;;12.50;52.72;100817.00;10292552;28;20046;-71
2023/05/24 02:04:51;;;;;;;7.28;1.00;;;;;;;12.46;53.18;100821.09;10304923;28;20157;-69
2023/05/24 02:09:52;;;;;;;8.88;1.02;;;;;;;12.36;53.58;100822.31;10302369;28;20050;-67
2023/05/24 02:14:56;;;;;;;15.00;1.73;;;;;;;12.36;53.24;100819.59;10302215;28;20043;-67
2023/05/24 02:19:58;;;;;;;11.40;1.83;;;;;;;12.28;53.77;100823.19;10303052;28;20537;-68
2023/05/24 02:25:00;;;;;;;12.77;1.92;;;;;;;12.26;53.27;100817.13;10298119;28;20047;-69
2023/05/24 02:30:02;;;;;;;9.18;1.52;;;;;;;12.19;54.10;100813.47;10303759;28;20051;-68
2023/05/24 02:35:04;;;;;;;11.13;1.70;;;;;;;12.18;54.30;100817.16;10300365;28;20046;-63
2023/05/24 02:40:06;;;;;;;11.68;1.50;;;;;;;12.20;54.28;100820.53;10305561;28;20050;-63
2023/05/24 02:45:08;;;;;;;12.32;1.20;;;;;;;12.20;53.93;100821.34;10282913;28;20038;-69
2023/05/24 02:50:09;;;;;;;4.70;1.27;;;;;;;12.09;54.58;100824.44;10297433;28;20109;-66
2023/05/24 02:55:11;;;;;;;3.53;1.48;;;;;;;12.03;54.73;100823.28;10299049;28;20058;-67
2023/05/24 03:00:13;;;;;;;7.35;1.73;;;;;;;12.02;54.64;100828.84;10302239;28;20049;-69
2023/05/24 03:05:16;;;;;;;10.77;2.20;;;;;;;11.98;54.83;100825.66;10299679;28;20076;-69
2023/05/24 03:10:17;;;;;;;8.45;1.52;;;;;;;11.93;55.24;100836.13;10298465;28;20497;-69
2023/05/24 03:15:19;;;;;;;8.55;1.33;;;;;;;11.73;54.97;100832.94;10298432;28;20521;-63
2023/05/24 03:20:22;;;;;;;7.68;1.00;;;;;;;11.66;54.92;100830.09;10291829;28;20042;-69
2023/05/24 03:25:23;;;;;;;9.95;1.52;;;;;;;11.56;55.12;100825.91;10298378;28;20046;-69
2023/05/24 03:30:25;;;;;;;8.82;0.90;;;;;;;11.56;55.01;100821.34;10298933;28;20041;-64
2023/05/24 03:35:26;;;;;;;8.27;1.20;;;;;;;11.57;55.07;100814.97;10294322;28;20042;-64
2023/05/24 03:40:31;;;;;;;7.60;1.45;;;;;;;11.55;54.92;100811.59;10301029;28;20379;-66
2023/05/24 03:45:32;;;;;;;13.07;1.48;;;;;;;11.47;54.85;100816.97;10297465;28;20042;-66
2023/05/24 03:50:40;;;;;;;12.45;1.08;;;;;;;11.41;54.53;100825.75;10301935;28;20046;-64
2023/05/24 03:55:41;;;;;;;10.18;2.10;;;;;;;11.27;54.70;100828.09;10283808;28;20799;-63
2023/05/24 04:00:43;;;;;;;8.38;0.88;;;;;;;11.22;54.89;100838.53;10299099;28;20039;-65
2023/05/24 04:05:45;;;;;;;9.15;1.08;;;;;;;11.14;54.86;100841.25;10297444;28;20069;-66
2023/05/24 04:10:47;;;;;;;8.73;0.80;;;;;;;11.17;54.61;100848.97;10300928;28;20043;-65
2023/05/24 04:15:48;;;;;;;10.40;1.13;;;;;;;11.16;54.62;100847.28;10297773;28;20038;-66
2023/05/24 04:20:50;;;;;;;9.32;0.98;;;;;;;11.16;54.62;100849.13;10299829;28;20051;-67
2023/05/24 04:25:51;;;;;;;10.48;1.83;;;;;;;11.08;54.79;100849.97;10293791;28;20402;-66
2023/05/24 04:30:54;;;;;;;11.20;0.90;;;;;;;11.06;54.52;100852.84;10299253;28;20045;-66
2023/05/24 04:35:57;;;;;;;7.03;1.38;;;;;;;11.07;54.76;100861.75;10300150;28;20350;-67
2023/05/24 04:40:59;;;;;;;10.98;1.38;;;;;;;11.10;54.75;100858.72;10293283;28;20502;-66
2023/05/24 04:46:00;;;;;;;13.23;2.03;;;;;;;11.21;54.45;100863.75;10298048;28;21709;-66
2023/05/24 04:51:02;;;;;;;11.25;1.50;;;;;;;11.19;54.92;100863.09;10304774;28;20046;-67
2023/05/24 04:56:03;;;;;;;9.82;0.85;;;;;;;11.31;54.63;100868.97;10302039;28;20047;-65
2023/05/24 05:01:05;;;;;;;6.15;1.02;;;;;;;11.42;54.58;100855.19;10304626;28;20049;-66
2023/05/24 05:06:07;;;;;;;6.55;0.93;;;;;;;11.46;54.43;100863.78;10288652;28;20398;-65
2023/05/24 05:11:08;;;;;;;8.20;1.30;;;;;;;11.52;54.17;100863.09;10291684;28;20138;-64
2023/05/24 05:16:10;;;;;;;14.48;1.50;;;;;;;11.58;54.38;100885.81;10302204;28;20043;-64
2023/05/24 05:21:12;;;;;;;8.02;1.20;;;;;;;11.69;54.51;100885.47;10304108;28;20054;-67
2023/05/24 05:26:13;;;;;;;12.05;1.20;;;;;;;11.69;54.43;100872.00;10302794;28;20085;-67
2023/05/24 05:31:15;;;;;;;12.13;2.03;;;;;;;11.73;54.10;100878.75;10304347;28;20054;-66
2023/05/24 05:36:17;;;;;;;10.93;1.83;;;;;;;11.95;53.47;100887.97;10304882;28;20123;-67
2023/05/24 05:41:18;;;;;;;13.32;1.13;;;;;;;12.00;53.31;100885.59;10308178;28;20072;-66
2023/05/24 05:46:20;;;;;;;4.97;1.15;;;;;;;11.97;53.45;100901.28;10312060;28;20065;-67
2023/05/24 05:51:22;;;;;;;5.60;1.48;;;;;;;12.04;53.51;100902.25;10301503;28;20071;-67
2023/05/24 05:56:23;;;;;;;13.32;2.15;;;;;;;12.16;53.07;100908.13;10302864;28;20051;-68
2023/05/24 06:01:25;;;;;;;16.48;3.42;;;;;;;12.23;52.85;100901.88;10301153;28;20633;-66
2023/05/24 06:06:26;;;;;;;9.95;1.45;;;;;;;12.23;53.40;100914.53;10301907;28;20043;-66
2023/05/24 06:11:28;;;;;;;12.80;1.55;;;;;;;12.26;52.90;100922.25;10304411;28;20050;-66
2023/05/24 06:16:31;;;;;;;10.00;2.72;;;;;;;12.39;52.89;100919.84;10304431;28;20059;-67
2023/05/24 06:21:32;;;;;;;11.55;1.70;;;;;;;12.54;52.45;100929.91;10301986;28;20066;-69
2023/05/24 06:26:36;;;;;;;11.25;1.75;;;;;;;12.55;52.16;100916.25;10301103;28;20045;-67
2023/05/24 06:31:38;;;;;;;13.18;1.58;;;;;;;12.61;52.10;100920.13;10302162;28;20043;-64
2023/05/24 06:36:42;;;;;;;8.52;1.48;;;;;;;12.48;51.84;100923.38;10304542;28;20442;-67
2023/05/24 06:41:45;;;;;;;17.58;2.60;;;;;;;12.67;51.48;100916.72;10299538;28;20038;-70
2023/05/24 06:46:46;;;;;;;12.57;2.08;;;;;;;12.73;51.53;100917.88;10304849;28;20693;-69
2023/05/24 06:51:48;;;;;;;12.10;2.20;;;;;;;12.96;50.87;100912.53;10301505;28;20049;-68
2023/05/24 06:56:50;;;;;;;7.22;1.17;;;;;;;13.10;50.71;100911.75;10300718;28;20069;-67
2023/05/24 07:01:56;;;;;;;12.25;2.15;;;;;;;13.20;49.90;100912.34;10301436;28;20058;-69
2023/05/24 07:06:59;;;;;;;11.68;1.85;;;;;;;13.19;49.61;100924.19;10290557;28;20042;-67
2023/05/24 07:12:01;;;;;;;10.35;1.10;;;;;;;13.18;49.33;100927.91;10296798;28;20042;-68
2023/05/24 07:17:03;;;;;;;10.77;2.10;;;;;;;13.28;49.13;100933.06;10294200;28;20419;-64
2023/05/24 07:22:04;;;;;;;9.82;1.48;;;;;;;13.58;48.76;100944.84;10295534;28;20050;-69
2023/05/24 07:27:06;;;;;;;12.50;2.20;;;;;;;13.71;48.60;100952.34;10303811;28;20053;-65
2023/05/24 07:32:07;;;;;;;11.68;1.45;;;;;;;13.93;48.75;100955.22;10297557;28;20699;-70
2023/05/24 07:37:10;;;;;;;9.75;1.48;;;;;;;14.07;48.47;100954.38;10298475;28;20051;-68
2023/05/24 07:42:12;;;;;;;9.77;1.65;;;;;;;14.49;48.06;100944.81;10299979;28;20050;-69
2023/05/24 07:47:13;;;;;;;4.25;1.05;;;;;;;14.81;47.44;100962.56;10298663;28;20041;-69
2023/05/24 07:52:14;;;;;;;14.82;2.10;;;;;;;15.02;46.95;100947.38;10300123;28;20042;-63
2023/05/24 07:57:17;;;;;;;7.88;2.15;;;;;;;15.13;46.76;100952.31;10302176;28;20047;-67
2023/05/24 08:02:19;;;;;;;11.10;1.88;;;;;;;15.01;46.50;100964.69;10300321;28;20058;-65
2023/05/24 08:07:21;;;;;;;12.23;1.48;;;;;;;14.85;46.44;100961.16;10301504;28;20046;-67
2023/05/24 08:12:24;;;;;;;9.02;2.00;;;;;;;14.84;46.42;100964.03;10297885;28;20498;-66
2023/05/24 08:17:26;;;;;;;11.45;1.58;;;;;;;14.78;46.45;100971.03;10296180;28;20395;-68
2023/05/24 08:22:27;;;;;;;13.93;1.58;;;;;;;14.68;46.46;100974.03;10302572;28;20050;-66
2023/05/24 08:27:29;;;;;;;8.13;0.90;;;;;;;14.73;46.16;100965.38;10305911;28;20043;-66
2023/05/24 08:32:31;;;;;;;8.32;1.85;;;;;;;14.80;45.69;100960.03;10306811;28;20625;-61
2023/05/24 08:37:32;;;;;;;7.43;1.63;;;;;;;14.92;45.69;100952.25;10301951;28;20141;-65
2023/05/24 08:42:37;;;;;;;11.07;1.52;;;;;;;14.90;45.54;100955.16;10299819;28;20545;-68
2023/05/24 08:47:39;;;;;;;10.82;1.33;;;;;;;15.18;45.42;100955.25;10303866;28;20128;-66
2023/05/24 08:52:41;;;;;;;14.13;1.67;;;;;;;15.10;45.04;100949.97;10309303;28;20556;-66
2023/05/24 08:57:44;;;;;;;6.38;1.10;;;;;;;15.40;44.68;100949.88;10301754;28;20045;-63
2023/05/24 09:02:46;;;;;;;8.55;1.88;;;;;;;15.66;43.84;100944.72;10307675;28;20054;-68
2023/05/24 09:07:49;;;;;;;11.55;1.42;;;;;;;15.47;44.51;100934.53;10300437;28;20073;-70
2023/05/24 09:12:54;;;;;;;11.18;1.75;;;;;;;15.66;43.93;100930.34;10300336;28;20082;-63
2023/05/24 09:17:56;;;;;;;5.97;1.15;;;;;;;15.74;43.76;100929.38;10304626;28;20057;-68
2023/05/24 09:22:58;;;;;;;8.75;1.25;;;;;;;15.83;43.16;100931.75;10308156;28;20453;-65
2023/05/24 09:28:05;;;;;;;9.82;2.22;;;;;;;16.00;42.91;100935.00;10307171;28;20057;-67
2023/05/24 09:33:07;;;;;;;;;;;;;;;16.25;42.80;100934.53;10299557;28;20389;-67
2023/05/24 09:38:18;;;;;;;12.68;1.92;;;;;;;16.42;42.13;100921.50;10302106;28;19925;-65
2023/05/24 09:43:19;;;;;;;9.85;2.10;;;;;;;16.62;41.96;100911.56;10299705;28;20043;-68
2023/05/24 09:48:21;;;;;;;7.88;1.65;;;;;;;16.68;41.83;100919.97;10305904;28;20058;-65
2023/05/24 09:53:22;;;;;;;13.13;2.25;;;;;;;17.13;41.05;100913.03;10304490;28;20077;-67
2023/05/24 09:58:29;;;;;;;7.63;1.58;;;;;;;17.49;40.47;100911.84;10301689;28;20080;-68
2023/05/24 10:03:31;;;;;;;;;;;;;;;17.75;40.75;100911.03;10302142;28;20501;-67
2023/05/24 10:08:34;;;;;;;14.80;1.35;;;;;;;17.82;39.76;100911.84;10306096;28;19957;-67
2023/05/24 10:13:36;;;;;;;6.90;1.98;;;;;;;17.53;39.51;100912.25;10309401;28;20047;-61
2023/05/24 10:18:38;;;;;;;9.80;1.65;;;;;;;17.47;39.39;100913.94;10306999;28;20438;-60
2023/05/24 10:23:42;;;;;;;7.07;1.35;;;;;;;17.84;39.14;100900.78;10307568;28;20035;-60
2023/05/24 10:28:47;;;;;;;8.95;1.30;;;;;;;18.12;38.96;100903.25;10300214;28;20062;-62
2023/05/24 10:33:50;;;;;;;9.55;1.20;;;;;;;18.35;37.73;100896.53;10300388;28;20038;-63
2023/05/24 10:38:54;;;;;;;11.55;1.30;;;;;;;18.78;37.31;100895.94;10302675;28;20390;-63
2023/05/24 10:43:56;;;;;;;12.68;1.75;;;;;;;18.83;36.79;100890.69;10303353;28;20053;-62
2023/05/24 10:49:12;;;;;;;7.07;1.42;;;;;;;18.94;36.53;100878.28;10304818;28;20049;-63
2023/05/24 10:54:16;;;;;;;7.97;1.10;;;;;;;19.23;36.44;100874.09;10293769;28;20034;-64
2023/05/24 10:59:36;;;;;;;6.38;1.58;;;;;;;19.72;35.86;100877.09;10304097;28;20048;-63
2023/05/24 11:04:42;;;;;;;9.82;1.58;;;;;;;20.06;35.52;100863.97;10298029;28;20035;-62
2023/05/24 11:09:51;;;;;;;9.07;1.38;;;;;;;20.47;35.03;100868.75;10298960;28;20053;-62
2023/05/24 11:14:53;;;;;;;6.35;1.40;;;;;;;20.68;34.46;100864.75;10298145;28;20084;-63
2023/05/24 11:19:54;;;;;;;7.60;2.08;;;;;;;20.52;34.23;100865.34;10299489;28;20536;-63
2023/05/24 11:24:56;;;;;;;14.95;1.73;;;;;;;20.55;33.97;100862.97;10303048;28;20815;-63
2023/05/24 11:29:59;;;;;;;8.63;1.08;;;;;;;20.90;33.30;100853.31;10298444;28;20041;-62
2023/05/24 11:35:02;;;;;;;9.30;1.52;;;;;;;20.96;33.38;100860.56;10302022;28;20050;-63
2023/05/24 11:40:08;;;;;;;7.82;1.30;;;;;;;20.86;33.13;100863.88;10308713;28;20051;-61
2023/05/24 11:45:10;;;;;;;7.00;1.25;;;;;;;21.00;32.88;100869.97;10301371;28;20130;-64
2023/05/24 11:50:15;;;;;;;10.05;1.70;;;;;;;21.00;32.91;100872.72;10303442;28;20516;-63
2023/05/24 11:55:23;;;;;;;8.45;1.85;;;;;;;20.87;32.82;100862.78;10304832;28;20502;-62
2023/05/24 12:00:25;;;;;;;11.55;2.65;;;;;;;21.19;32.27;100866.13;10313295;28;20221;-62
2023/05/24 12:05:30;;;;;;;3.83;1.40;;;;;;;21.41;32.36;100860.09;10304179;28;20054;-60
2023/05/24 12:10:33;;;;;;;8.27;1.55;;;;;;;21.89;31.67;100856.34;10307716;28;20398;-58
2023/05/24 12:15:35;;;;;;;4.78;1.02;;;;;;;21.79;31.27;100856.94;10304016;28;20042;-60
2023/05/24 12:20:37;;;;;;;11.25;1.42;;;;;;;22.24;30.87;100857.41;10307036;28;20061;-60
2023/05/24 12:25:39;;;;;;;7.38;1.15;;;;;;;22.67;30.78;100850.59;10307890;28;20050;-60
2023/05/24 12:30:43;;;;;;;5.65;1.58;;;;;;;23.38;29.90;100853.88;10306464;28;20041;-60
2023/05/24 12:35:46;;;;;;;6.03;1.25;;;;;;;22.90;29.68;100852.44;10301462;28;20129;-59
2023/05/24 12:40:48;;;;;;;7.40;1.67;;;;;;;22.99;29.44;100845.47;10306013;28;20045;-60
2023/05/24 12:46:10;;;;;;;8.18;1.30;;;;;;;23.62;29.21;100838.06;10308731;28;21694;-60
2023/05/24 12:51:11;;;;;;;4.50;1.10;;;;;;;24.45;27.47;100842.78;10302776;28;20051;-61
2023/05/24 12:56:13;;;;;;;10.93;1.63;;;;;;;24.21;27.83;100829.31;10303942;28;20054;-63
2023/05/24 13:01:14;;;;;;;10.27;1.75;;;;;;;23.63;28.08;100833.38;10309751;28;20110;-60
2023/05/24 13:06:16;;;;;;;8.27;1.27;;;;;;;23.88;27.95;100828.31;10306193;28;20068;-61
2023/05/24 13:11:17;;;;;;;9.20;1.65;;;;;;;24.01;27.20;100834.50;10302536;28;20038;-62
2023/05/24 13:16:19;;;;;;;8.02;1.38;;;;;;;24.48;27.11;100823.84;10304762;28;20050;-61
2023/05/24 13:21:20;;;;;;;4.43;0.95;;;;;;;24.59;27.00;100824.03;10311165;28;20133;-60
2023/05/24 13:26:23;;;;;;;6.50;1.23;;;;;;;25.00;26.65;100810.66;10286659;28;20130;-63
2023/05/24 13:31:25;;;;;;;3.90;1.00;;;;;;;25.14;26.61;100817.41;10308229;28;20228;-60
2023/05/24 13:36:27;;;;;;;5.78;1.27;;;;;;;24.19;26.97;100804.00;10300222;28;20049;-62
2023/05/24 13:41:29;;;;;;;5.53;0.90;;;;;;;24.34;26.74;100809.66;10306954;28;20534;-59
2023/05/24 13:46:30;;;;;;;8.23;1.40;;;;;;;24.89;26.35;100807.00;10312108;28;20048;-59
2023/05/24 13:51:32;;;;;;;8.98;1.58;;;;;;;24.92;26.40;100801.81;10305338;28;20042;-60
2023/05/24 13:56:34;;;;;;;8.80;1.08;;;;;;;25.57;25.94;100803.72;10304587;28;20047;-61
2023/05/24 14:01:39;;;;;;;5.10;1.10;;;;;;;26.76;24.54;100795.75;10308631;28;20105;-61
2023/05/24 14:06:41;;;;;;;5.47;1.50;;;;;;;27.59;23.45;100802.13;10302551;28;20419;-59
2023/05/24 14:11:44;;;;;;;5.90;1.33;;;;;;;27.76;22.51;100805.38;10303105;28;20038;-60
2023/05/24 14:16:50;;;;;;;5.82;1.08;;;;;;;27.55;22.39;100801.84;10309000;28;20038;-61
2023/05/24 14:21:52;;;;;;;8.82;1.27;;;;;;;26.83;23.32;100806.50;10300139;28;20397;-61
2023/05/24 14:26:53;;;;;;;7.32;1.23;;;;;;;26.66;23.79;100806.75;10303538;28;20062;-59
2023/05/24 14:31:54;;;;;;;5.38;0.73;;;;;;;26.43;23.74;100805.28;10303675;28;20054;-59
2023/05/24 14:36:56;;;;;;;6.82;1.23;;;;;;;26.08;23.50;100798.53;10307553;28;20383;-63
2023/05/24 14:41:57;;;;;;;6.55;1.88;;;;;;;25.46;23.54;100806.41;10306215;28;20054;-61
2023/05/24 14:46:59;;;;;;;4.10;0.70;;;;;;;25.33;23.29;100796.66;10292554;28;20458;-61
2023/05/24 14:52:01;;;;;;;6.90;1.08;;;;;;;25.98;22.78;100796.56;10297302;28;20057;-60
2023/05/24 14:57:03;;;;;;;5.13;0.90;;;;;;;24.88;23.41;100783.31;10314538;28;20057;-62
2023/05/24 15:02:05;;;;;;;6.63;1.00;;;;;;;25.32;23.74;100783.19;10305177;28;20162;-60
2023/05/24 15:07:06;;;;;;;5.13;1.00;;;;;;;26.04;23.23;100783.63;10305832;28;20101;-59
2023/05/24 15:12:08;;;;;;;3.78;0.80;;;;;;;26.09;22.38;100781.72;10301724;28;20054;-58
2023/05/24 15:17:10;;;;;;;3.35;0.93;;;;;;;26.11;22.98;100768.50;10297751;28;20038;-60
2023/05/24 15:22:12;;;;;;;2.58;0.88;;;;;;;26.12;22.20;100783.94;10299261;28;20054;-59
2023/05/24 15:27:13;;;;;;;3.13;0.65;;;;;;;26.16;22.30;100775.97;10295773;28;20061;-58
2023/05/24 15:32:15;;;;;;;4.90;0.80;;;;;;;26.23;22.28;100779.31;10297169;28;20081;-58
2023/05/24 15:37:18;;;;;;;4.75;0.80;;;;;;;26.19;22.30;100769.09;10305498;28;20065;-60
2023/05/24 15:42:20;;;;;;;3.85;0.60;;;;;;;26.07;22.40;100778.41;10297480;28;20054;-59
2023/05/24 15:47:26;;;;;;;3.63;0.70;;;;;;;25.49;23.05;100781.13;10308488;28;20048;-59
2023/05/24 15:52:28;;;;;;;2.15;0.68;;;;;;;25.13;23.57;100779.97;10298971;28;20038;-60
2023/05/24 15:57:30;;;;;;;4.75;0.80;;;;;;;24.87;23.91;100777.00;10295966;28;20042;-60
2023/05/24 16:02:31;;;;;;;7.43;1.10;;;;;;;24.66;23.61;100778.72;10295912;28;20078;-59
2023/05/24 16:07:33;;;;;;;4.80;1.00;;;;;;;24.54;23.61;100776.13;10293302;28;20050;-59
2023/05/24 16:12:34;;;;;;;8.40;0.85;;;;;;;24.69;23.62;100775.44;10297267;28;20046;-60
2023/05/24 16:17:36;;;;;;;4.57;0.80;;;;;;;24.84;23.92;100776.69;10294305;28;20045;-61
2023/05/24 16:22:46;;;;;;;6.55;0.75;;;;;;;24.94;23.34;100766.63;10296378;28;20061;-61
2023/05/24 16:27:48;;;;;;;5.10;0.98;;;;;;;25.46;22.82;100773.38;10300714;28;20049;-59
2023/05/24 16:32:49;;;;;;;5.68;0.98;;;;;;;25.89;23.16;100765.91;10299433;28;20052;-60
2023/05/24 16:37:51;;;;;;;8.10;1.08;;;;;;;25.64;23.11;100766.59;10298297;28;20056;-63
2023/05/24 16:42:53;;;;;;;4.57;0.60;;;;;;;25.35;22.97;100768.06;10296774;28;20054;-61
2023/05/24 16:47:54;;;;;;;5.40;1.15;;;;;;;24.94;23.12;100763.88;10311533;28;20065;-62
2023/05/24 16:52:56;;;;;;;3.72;0.70;;;;;;;24.48;23.60;100760.63;10310636;28;20085;-60
2023/05/24 16:57:57;;;;;;;3.03;0.60;;;;;;;24.12;24.35;100759.41;10307524;28;20063;-60
2023/05/24 17:02:59;;;;;;;4.03;0.88;;;;;;;23.50;24.84;100760.44;10317140;28;20164;-61
2023/05/24 17:08:00;;;;;;;4.65;1.30;;;;;;;22.90;25.69;100768.25;10311852;28;20051;-64
2023/05/24 17:13:02;;;;;;;5.85;0.98;;;;;;;22.52;26.22;100760.72;10305133;28;20034;-63
2023/05/24 17:18:04;;;;;;;6.10;1.05;;;;;;;22.44;26.67;100775.66;10319535;28;20039;-59
2023/05/24 17:23:06;;;;;;;10.38;1.42;;;;;;;22.43;27.04;100778.63;10295474;28;20081;-61
2023/05/24 17:28:07;;;;;;;5.80;0.98;;;;;;;22.77;26.98;100768.59;10289455;28;20047;-62
2023/05/24 17:33:09;;;;;;;6.82;1.58;;;;;;;22.68;27.13;100772.81;10289157;28;20043;-61
2023/05/24 17:38:10;;;;;;;3.70;0.95;;;;;;;22.66;26.64;100761.25;10302983;28;20054;-63
2023/05/24 17:43:12;;;;;;;6.63;0.82;;;;;;;22.29;27.10;100770.69;10299871;28;20050;-61
2023/05/24 17:48:13;;;;;;;6.75;1.23;;;;;;;22.11;27.70;100779.88;10310710;28;20457;-59
2023/05/24 17:53:15;;;;;;;9.10;1.27;;;;;;;22.21;27.95;100784.75;10308693;28;20050;-59
2023/05/24 17:58:34;;;;;;;6.07;1.50;;;;;;;22.52;27.85;100788.13;10309565;28;20061;-62
2023/05/24 18:03:39;;;;;;;9.02;1.65;;;;;;;22.32;28.71;100786.66;10300770;28;20405;-60
2023/05/24 18:08:42;;;;;;;4.93;1.20;;;;;;;21.63;29.47;100797.47;10307340;28;20501;-61
2023/05/24 18:13:44;;;;;;;4.50;0.85;;;;;;;21.30;30.19;100801.56;10307248;28;21969;-62
2023/05/24 18:18:45;;;;;;;7.75;1.23;;;;;;;20.85;30.43;100802.06;10294644;28;20137;-61
2023/05/24 18:23:47;;;;;;;12.15;1.42;;;;;;;20.30;31.33;100803.03;10304716;28;20109;-62
2023/05/24 18:28:48;;;;;;;11.55;1.80;;;;;;;19.82;31.95;100809.22;10296543;28;20057;-62
2023/05/24 18:33:50;;;;;;;4.15;1.23;;;;;;;19.47;32.63;100809.75;10303664;28;20061;-63
2023/05/24 18:38:51;;;;;;;7.63;1.00;;;;;;;19.07;33.89;100818.22;10303212;28;20145;-63
2023/05/24 18:43:53;;;;;;;9.23;1.25;;;;;;;18.81;33.92;100811.91;10295193;28;20051;-62
2023/05/24 18:48:57;;;;;;;6.75;2.60;;;;;;;18.48;34.92;100820.22;10305557;28;20065;-62
2023/05/24 18:53:58;;;;;;;5.20;1.25;;;;;;;18.16;35.46;100824.75;10302552;28;20473;-61
2023/05/24 18:59:00;;;;;;;8.85;1.55;;;;;;;17.85;36.14;100823.56;10298854;28;20047;-62
2023/05/24 19:04:01;;;;;;;8.18;1.23;;;;;;;17.63;36.39;100837.41;10303670;28;20051;-61
2023/05/24 19:09:03;;;;;;;6.13;1.52;;;;;;;17.35;36.81;100836.78;10291713;28;20050;-62
2023/05/24 19:14:04;;;;;;;12.07;1.45;;;;;;;17.12;37.48;100850.75;10305068;28;20058;-63
2023/05/24 19:19:06;;;;;;;6.47;1.33;;;;;;;16.91;37.91;100852.59;10294385;28;20061;-60
2023/05/24 19:24:07;;;;;;;7.80;1.20;;;;;;;16.74;38.49;100865.69;10301693;28;20081;-60
2023/05/24 19:29:09;;;;;;;5.85;1.48;;;;;;;16.51;39.11;100871.47;10308682;28;20050;-62
2023/05/24 19:34:11;;;;;;;4.97;1.20;;;;;;;16.34;39.49;100878.25;10291020;28;20520;-61
2023/05/24 19:39:12;;;;;;;7.60;1.20;;;;;;;16.24;39.63;100875.91;10314849;28;20056;-64
2023/05/24 19:44:14;;;;;;;8.48;1.38;;;;;;;16.12;40.09;100882.94;10308324;28;20048;-61
2023/05/24 19:49:15;;;;;;;4.63;0.73;;;;;;;15.97;40.71;100894.72;10305679;28;20058;-62
2023/05/24 19:54:17;;;;;;;12.45;1.52;;;;;;;15.81;41.08;100898.56;10298327;28;20259;-60
2023/05/24 19:59:18;;;;;;;5.93;1.60;;;;;;;15.67;41.79;100897.59;10310080;28;20042;-60
2023/05/24 20:04:20;;;;;;;6.03;1.20;;;;;;;15.61;42.05;100905.69;10312058;28;20107;-63
2023/05/24 20:09:22;;;;;;;6.07;1.13;;;;;;;15.54;42.31;100905.63;10304536;28;20118;-62
2023/05/24 20:14:23;;;;;;;8.98;1.55;;;;;;;15.43;42.76;100909.69;10325584;28;20078;-60
2023/05/24 20:19:25;;;;;;;9.07;1.45;;;;;;;15.35;43.02;100909.81;10314715;28;20065;-61
2023/05/24 20:24:27;;;;;;;10.27;2.00;;;;;;;15.27;43.34;100913.50;10327345;28;20101;-62
2023/05/24 20:29:28;;;;;;;8.85;1.67;;;;;;;15.18;43.76;100917.34;10337234;28;20438;-62
2023/05/24 20:34:30;;;;;;;4.28;1.40;;;;;;;15.06;44.04;100930.56;10344283;28;20054;-61
2023/05/24 20:39:32;;;;;;;5.82;1.50;;;;;;;15.00;44.24;100923.19;10344660;28;20049;-59
2023/05/24 20:44:33;;;;;;;8.10;1.83;;;;;;;14.92;44.94;100923.31;10330866;28;20062;-61
2023/05/24 20:49:35;;;;;;;7.28;1.55;;;;;;;14.82;45.11;100925.50;10320175;28;20526;-60
2023/05/24 20:54:36;;;;;;;9.30;2.28;;;;;;;14.76;45.46;100932.50;10317528;28;20050;-59
2023/05/24 20:59:38;;;;;;;4.82;1.98;;;;;;;14.67;45.72;100925.50;10317812;28;20042;-61
2023/05/24 21:04:39;;;;;;;8.73;1.67;;;;;;;14.61;45.94;100934.38;10309598;28;20468;-59
2023/05/24 21:09:41;;;;;;;8.57;1.77;;;;;;;14.45;46.31;100929.97;10315147;28;20046;-61
2023/05/24 21:14:43;;;;;;;8.43;1.83;;;;;;;14.35;46.76;100938.38;10313337;28;20074;-60
2023/05/24 21:19:44;;;;;;;7.13;1.73;;;;;;;14.28;47.05;100948.28;10312033;28;20039;-61
2023/05/24 21:24:46;;;;;;;9.95;1.38;;;;;;;14.24;47.10;100941.56;10313119;28;20041;-63
2023/05/24 21:29:47;;;;;;;7.10;1.73;;;;;;;14.14;47.44;100949.94;10311269;28;20039;-59
2023/05/24 21:34:49;;;;;;;7.05;1.30;;;;;;;14.08;47.57;100951.50;10312727;28;20065;-60
2023/05/24 21:39:50;;;;;;;10.68;1.20;;;;;;;13.96;48.16;100949.41;10313768;28;20250;-63
2023/05/24 21:44:51;;;;;;;6.82;1.02;;;;;;;13.85;48.54;100948.84;10314272;28;20121;-60
2023/05/24 21:49:53;;;;;;;6.38;1.48;;;;;;;13.80;48.64;100953.97;10314671;28;20058;-61
2023/05/24 21:54:55;;;;;;;5.38;1.42;;;;;;;13.66;49.33;100952.91;10313648;28;20058;-61
2023/05/24 21:59:56;;;;;;;8.10;1.00;;;;;;;13.65;48.87;100956.63;10313023;28;20049;-60
2023/05/24 22:04:58;;;;;;;2.80;0.73;;;;;;;13.57;49.24;100967.50;10312892;28;20054;-60
2023/05/24 22:09:59;;;;;;;3.55;0.73;;;;;;;13.52;49.47;100967.19;10311812;28;20047;-58
2023/05/24 22:15:01;;;;;;;6.80;1.02;;;;;;;13.54;49.50;100969.72;10306245;28;20050;-61
2023/05/24 22:20:04;;;;;;;2.85;0.70;;;;;;;13.48;49.68;100979.38;10313667;28;20049;-59
2023/05/24 22:25:07;;;;;;;6.00;0.80;;;;;;;13.48;50.36;100977.50;10309555;28;20398;-60
2023/05/24 22:30:10;;;;;;;2.70;0.60;;;;;;;13.45;50.61;100972.47;10315461;28;20038;-57
2023/05/24 22:35:11;;;;;;;3.95;0.75;;;;;;;13.44;50.49;100978.03;10312233;28;20426;-57
2023/05/24 22:40:13;;;;;;;4.00;1.20;;;;;;;13.40;50.99;100979.44;10313522;28;20043;-60
2023/05/24 22:45:15;;;;;;;3.67;0.90;;;;;;;13.37;51.77;100979.78;10312984;28;20066;-62
2023/05/24 22:50:16;;;;;;;5.63;0.77;;;;;;;13.36;51.62;100978.09;10308807;28;20070;-58
2023/05/24 22:55:18;;;;;;;4.80;1.45;;;;;;;13.34;52.00;100978.28;10309425;28;20042;-58
2023/05/24 23:00:19;;;;;;;4.30;1.05;;;;;;;13.30;52.88;100982.34;10305759;28;20038;-60
2023/05/24 23:05:22;;;;;;;4.60;1.20;;;;;;;13.29;52.82;100988.75;10302084;28;20050;-57